PWSweather.com
Personal Weather Stations
Station Observations
KNCGREEN1000
Bell Orchard Drive, Greensboro, NC 27455

Bell Orchard DriveGreensboro, NC 27455

Lat: 36.132, Lon: -79.8

Elevation: 876

Station Type: Acurite Atlas

Http://www.gilhutcheson.com

High Low Average
Temperature 40.9°F4.9°C 24.8°F-4.0°C 31.8°F-0.1°C
Dew Point 19.5°F-6.9°C 12.7°F-10.7°C 15.6°F-9.1°C
Winds 8.0 mph 12.9 kmh Calm Calm 2.0 mph SE3.2 kmh SE
Wind Gusts -- -- --
Humidity 67% 32% 52%
Pressure 30.55 in1034.5 mb 30.30 in1026.1 mb -
Precipitation 0.00 in0.0 mm - -
Hour Temp Dew Point Humidity Winds Wind Gusts Pressure Precip Precip Rate Daily Precip Total
12:03 AM 30.7°F-0.7°C 19.1°F-7.2°C 62% 3.0 mph NNE4.8 kmh NNE -- 30.30 in1026.1 mb 0.00 in0.0 mm 0.00 in0.0 mm 0.00 in0.0 mm
12:07 AM 30.9°F-0.6°C 19.3°F-7.1°C 62% 2.0 mph ENE3.2 kmh ENE -- 30.30 in1026.1 mb 0.00 in0.0 mm 0.00 in0.0 mm 0.00 in0.0 mm
12:13 AM 30.8°F-0.7°C 18.7°F-7.4°C 61% 2.0 mph N3.2 kmh N -- 30.30 in1026.1 mb 0.00 in0.0 mm 0.00 in0.0 mm 0.00 in0.0 mm
12:18 AM 30.7°F-0.7°C 18.7°F-7.4°C 61% 2.0 mph ENE3.2 kmh ENE -- 30.31 in1026.4 mb 0.00 in0.0 mm 0.00 in0.0 mm 0.00 in0.0 mm
12:23 AM 30.3°F-0.9°C 18.4°F-7.6°C 61% 2.0 mph ENE3.2 kmh ENE -- 30.30 in1026.1 mb 0.00 in0.0 mm 0.00 in0.0 mm 0.00 in0.0 mm
12:28 AM 30.3°F-0.9°C 19.1°F-7.2°C 63% 1.0 mph ESE1.6 kmh ESE -- 30.31 in1026.4 mb 0.00 in0.0 mm 0.00 in0.0 mm 0.00 in0.0 mm
12:33 AM 30.0°F-1.1°C 19.5°F-6.9°C 65% 2.0 mph ENE3.2 kmh ENE -- 30.31 in1026.4 mb 0.00 in0.0 mm 0.00 in0.0 mm 0.00 in0.0 mm
12:38 AM 30.0°F-1.1°C 18.8°F-7.3°C 63% 2.0 mph NE3.2 kmh NE -- 30.31 in1026.4 mb 0.00 in0.0 mm 0.00 in0.0 mm 0.00 in0.0 mm
12:43 AM 30.2°F-1.0°C 18.6°F-7.4°C 62% 4.0 mph NE6.4 kmh NE -- 30.31 in1026.4 mb 0.00 in0.0 mm 0.00 in0.0 mm 0.00 in0.0 mm
12:48 AM 30.2°F-1.0°C 18.2°F-7.7°C 61% 2.0 mph NNE3.2 kmh NNE -- 30.31 in1026.4 mb 0.00 in0.0 mm 0.00 in0.0 mm 0.00 in0.0 mm
12:53 AM 30.0°F-1.1°C 18.4°F-7.6°C 62% 1.0 mph ENE1.6 kmh ENE -- 30.31 in1026.4 mb 0.00 in0.0 mm 0.00 in0.0 mm 0.00 in0.0 mm
12:58 AM 29.8°F-1.2°C 18.3°F-7.6°C 62% 2.0 mph NE3.2 kmh NE -- 30.31 in1026.4 mb 0.00 in0.0 mm 0.00 in0.0 mm 0.00 in0.0 mm
01:03 AM 29.7°F-1.3°C 18.1°F-7.7°C 62% 3.0 mph N4.8 kmh N -- 30.31 in1026.4 mb 0.00 in0.0 mm 0.00 in0.0 mm 0.00 in0.0 mm
01:08 AM 29.6°F-1.3°C 18.1°F-7.7°C 62% 2.0 mph NE3.2 kmh NE -- 30.32 in1026.8 mb 0.00 in0.0 mm 0.00 in0.0 mm 0.00 in0.0 mm
01:13 AM 29.4°F-1.4°C 18.3°F-7.6°C 63% 4.0 mph NNE6.4 kmh NNE -- 30.31 in1026.4 mb 0.00 in0.0 mm 0.00 in0.0 mm 0.00 in0.0 mm
01:18 AM 29.3°F-1.5°C 18.1°F-7.7°C 63% 2.0 mph NE3.2 kmh NE -- 30.31 in1026.4 mb 0.00 in0.0 mm 0.00 in0.0 mm 0.00 in0.0 mm
01:23 AM 29.5°F-1.4°C 17.9°F-7.8°C 62% 4.0 mph N6.4 kmh N -- 30.31 in1026.4 mb 0.00 in0.0 mm 0.00 in0.0 mm 0.00 in0.0 mm
01:28 AM 29.3°F-1.5°C 17.7°F-7.9°C 62% Calm Calm -- 30.32 in1026.8 mb 0.00 in0.0 mm 0.00 in0.0 mm 0.00 in0.0 mm
01:32 AM 29.2°F-1.6°C 17.2°F-8.2°C 61% 1.0 mph E1.6 kmh E -- 30.32 in1026.8 mb 0.00 in0.0 mm 0.00 in0.0 mm 0.00 in0.0 mm
01:38 AM 29.1°F-1.6°C 17.6°F-8.0°C 62% 2.0 mph ENE3.2 kmh ENE -- 30.32 in1026.8 mb 0.00 in0.0 mm 0.00 in0.0 mm 0.00 in0.0 mm
01:43 AM 28.9°F-1.7°C 17.0°F-8.3°C 61% 1.0 mph SW1.6 kmh SW -- 30.32 in1026.8 mb 0.00 in0.0 mm 0.00 in0.0 mm 0.00 in0.0 mm
01:47 AM 28.7°F-1.8°C 16.5°F-8.6°C 60% 2.0 mph WNW3.2 kmh WNW -- 30.32 in1026.8 mb 0.00 in0.0 mm 0.00 in0.0 mm 0.00 in0.0 mm
01:53 AM 28.6°F-1.9°C 17.1°F-8.3°C 62% 1.0 mph NE1.6 kmh NE -- 30.33 in1027.1 mb 0.00 in0.0 mm 0.00 in0.0 mm 0.00 in0.0 mm
01:58 AM 28.3°F-2.1°C 16.7°F-8.5°C 62% 3.0 mph NNE4.8 kmh NNE -- 30.33 in1027.1 mb 0.00 in0.0 mm 0.00 in0.0 mm 0.00 in0.0 mm
02:03 AM 28.2°F-2.1°C 17.8°F-7.9°C 65% 3.0 mph N4.8 kmh N -- 30.34 in1027.4 mb 0.00 in0.0 mm 0.00 in0.0 mm 0.00 in0.0 mm
02:08 AM 28.0°F-2.2°C 17.7°F-7.9°C 65% 1.0 mph W1.6 kmh W -- 30.34 in1027.4 mb 0.00 in0.0 mm 0.00 in0.0 mm 0.00 in0.0 mm
02:13 AM 28.0°F-2.2°C 17.3°F-8.2°C 64% 3.0 mph NNE4.8 kmh NNE -- 30.34 in1027.4 mb 0.00 in0.0 mm 0.00 in0.0 mm 0.00 in0.0 mm
02:17 AM 28.2°F-2.1°C 17.1°F-8.3°C 63% 2.0 mph NNE3.2 kmh NNE -- 30.34 in1027.4 mb 0.00 in0.0 mm 0.00 in0.0 mm 0.00 in0.0 mm
02:23 AM 28.3°F-2.1°C 17.5°F-8.1°C 64% 1.0 mph ESE1.6 kmh ESE -- 30.35 in1027.8 mb 0.00 in0.0 mm 0.00 in0.0 mm 0.00 in0.0 mm
02:28 AM 28.1°F-2.2°C 17.7°F-7.9°C 65% 5.0 mph 8.0 kmh -- 30.35 in1027.8 mb 0.00 in0.0 mm 0.00 in0.0 mm 0.00 in0.0 mm
02:33 AM 28.0°F-2.2°C 17.7°F-7.9°C 65% 2.0 mph NNE3.2 kmh NNE -- 30.35 in1027.8 mb 0.00 in0.0 mm 0.00 in0.0 mm 0.00 in0.0 mm
02:38 AM 27.9°F-2.3°C 17.1°F-8.3°C 64% 2.0 mph NE3.2 kmh NE -- 30.35 in1027.8 mb 0.00 in0.0 mm 0.00 in0.0 mm 0.00 in0.0 mm
02:43 AM 28.1°F-2.2°C 16.9°F-8.4°C 63% 2.0 mph ENE3.2 kmh ENE -- 30.35 in1027.8 mb 0.00 in0.0 mm 0.00 in0.0 mm 0.00 in0.0 mm
02:48 AM 28.0°F-2.2°C 16.2°F-8.8°C 61% 3.0 mph NNE4.8 kmh NNE -- 30.35 in1027.8 mb 0.00 in0.0 mm 0.00 in0.0 mm 0.00 in0.0 mm
02:53 AM 28.3°F-2.1°C 16.7°F-8.5°C 62% 4.0 mph NE6.4 kmh NE -- 30.36 in1028.1 mb 0.00 in0.0 mm 0.00 in0.0 mm 0.00 in0.0 mm
02:57 AM 28.3°F-2.1°C 16.3°F-8.7°C 61% 4.0 mph NNE6.4 kmh NNE -- 30.35 in1027.8 mb 0.00 in0.0 mm 0.00 in0.0 mm 0.00 in0.0 mm
03:03 AM 28.3°F-2.1°C 16.7°F-8.5°C 62% 4.0 mph NE6.4 kmh NE -- 30.36 in1028.1 mb 0.00 in0.0 mm 0.00 in0.0 mm 0.00 in0.0 mm
03:08 AM 28.2°F-2.1°C 16.3°F-8.7°C 61% 2.0 mph NE3.2 kmh NE -- 30.36 in1028.1 mb 0.00 in0.0 mm 0.00 in0.0 mm 0.00 in0.0 mm
03:13 AM 28.0°F-2.2°C 16.2°F-8.8°C 61% 4.0 mph N6.4 kmh N -- 30.36 in1028.1 mb 0.00 in0.0 mm 0.00 in0.0 mm 0.00 in0.0 mm
03:17 AM 27.9°F-2.3°C 16.8°F-8.4°C 63% 8.0 mph NNW12.9 kmh NNW -- 30.36 in1028.1 mb 0.00 in0.0 mm 0.00 in0.0 mm 0.00 in0.0 mm
03:23 AM 27.9°F-2.3°C 16.0°F-8.9°C 61% 3.0 mph NE4.8 kmh NE -- 30.37 in1028.4 mb 0.00 in0.0 mm 0.00 in0.0 mm 0.00 in0.0 mm
03:27 AM 27.9°F-2.3°C 15.6°F-9.1°C 60% 5.0 mph 8.0 kmh -- 30.37 in1028.4 mb 0.00 in0.0 mm 0.00 in0.0 mm 0.00 in0.0 mm
03:33 AM 28.1°F-2.2°C 15.4°F-9.2°C 59% 6.0 mph N9.7 kmh N -- 30.37 in1028.4 mb 0.00 in0.0 mm 0.00 in0.0 mm 0.00 in0.0 mm
03:38 AM 27.9°F-2.3°C 16.0°F-8.9°C 61% 2.0 mph NNE3.2 kmh NNE -- 30.37 in1028.4 mb 0.00 in0.0 mm 0.00 in0.0 mm 0.00 in0.0 mm
03:42 AM 27.6°F-2.4°C 16.2°F-8.8°C 62% 2.0 mph NE3.2 kmh NE -- 30.37 in1028.4 mb 0.00 in0.0 mm 0.00 in0.0 mm 0.00 in0.0 mm
03:48 AM 27.5°F-2.5°C 15.7°F-9.1°C 61% 3.0 mph N4.8 kmh N -- 30.37 in1028.4 mb 0.00 in0.0 mm 0.00 in0.0 mm 0.00 in0.0 mm
03:53 AM 27.4°F-2.6°C 15.5°F-9.2°C 61% 2.0 mph NNE3.2 kmh NNE -- 30.37 in1028.4 mb 0.00 in0.0 mm 0.00 in0.0 mm 0.00 in0.0 mm
03:58 AM 27.3°F-2.6°C 16.2°F-8.8°C 63% 2.0 mph NNW3.2 kmh NNW -- 30.38 in1028.8 mb 0.00 in0.0 mm 0.00 in0.0 mm 0.00 in0.0 mm
04:03 AM 26.9°F-2.8°C 15.5°F-9.2°C 62% 2.0 mph NE3.2 kmh NE -- 30.38 in1028.8 mb 0.00 in0.0 mm 0.00 in0.0 mm 0.00 in0.0 mm
04:08 AM 27.0°F-2.8°C 15.5°F-9.2°C 62% 2.0 mph NNE3.2 kmh NNE -- 30.38 in1028.8 mb 0.00 in0.0 mm 0.00 in0.0 mm 0.00 in0.0 mm
04:13 AM 26.9°F-2.8°C 15.9°F-8.9°C 63% 5.0 mph NW8.0 kmh NW -- 30.38 in1028.8 mb 0.00 in0.0 mm 0.00 in0.0 mm 0.00 in0.0 mm
04:18 AM 26.9°F-2.8°C 15.5°F-9.2°C 62% 1.0 mph ENE1.6 kmh ENE -- 30.38 in1028.8 mb 0.00 in0.0 mm 0.00 in0.0 mm 0.00 in0.0 mm
04:23 AM 26.9°F-2.8°C 15.5°F-9.2°C 62% 3.0 mph N4.8 kmh N -- 30.39 in1029.1 mb 0.00 in0.0 mm 0.00 in0.0 mm 0.00 in0.0 mm
04:28 AM 26.9°F-2.8°C 15.5°F-9.2°C 62% 3.0 mph NE4.8 kmh NE -- 30.39 in1029.1 mb 0.00 in0.0 mm 0.00 in0.0 mm 0.00 in0.0 mm
04:33 AM 26.9°F-2.8°C 15.5°F-9.2°C 62% 2.0 mph NE3.2 kmh NE -- 30.39 in1029.1 mb 0.00 in0.0 mm 0.00 in0.0 mm 0.00 in0.0 mm
04:37 AM 26.9°F-2.8°C 15.2°F-9.3°C 61% 4.0 mph N6.4 kmh N -- 30.40 in1029.5 mb 0.00 in0.0 mm 0.00 in0.0 mm 0.00 in0.0 mm
04:43 AM 26.6°F-3.0°C 15.6°F-9.1°C 63% 2.0 mph NNW3.2 kmh NNW -- 30.40 in1029.5 mb 0.00 in0.0 mm 0.00 in0.0 mm 0.00 in0.0 mm
04:47 AM 26.5°F-3.1°C 15.4°F-9.2°C 63% 4.0 mph NE6.4 kmh NE -- 30.39 in1029.1 mb 0.00 in0.0 mm 0.00 in0.0 mm 0.00 in0.0 mm
04:53 AM 26.8°F-2.9°C 15.4°F-9.2°C 62% 3.0 mph N4.8 kmh N -- 30.40 in1029.5 mb 0.00 in0.0 mm 0.00 in0.0 mm 0.00 in0.0 mm
04:58 AM 26.7°F-2.9°C 15.7°F-9.1°C 63% 2.0 mph NE3.2 kmh NE -- 30.40 in1029.5 mb 0.00 in0.0 mm 0.00 in0.0 mm 0.00 in0.0 mm
05:03 AM 26.6°F-3.0°C 15.6°F-9.1°C 63% 2.0 mph NW3.2 kmh NW -- 30.39 in1029.1 mb 0.00 in0.0 mm 0.00 in0.0 mm 0.00 in0.0 mm
05:08 AM 26.5°F-3.1°C 15.0°F-9.4°C 62% 3.0 mph NNE4.8 kmh NNE -- 30.40 in1029.5 mb 0.00 in0.0 mm 0.00 in0.0 mm 0.00 in0.0 mm
05:13 AM 26.5°F-3.1°C 14.6°F-9.7°C 61% Calm Calm -- 30.40 in1029.5 mb 0.00 in0.0 mm 0.00 in0.0 mm 0.00 in0.0 mm
05:18 AM 26.2°F-3.2°C 15.2°F-9.3°C 63% 3.0 mph N4.8 kmh N -- 30.40 in1029.5 mb 0.00 in0.0 mm 0.00 in0.0 mm 0.00 in0.0 mm
05:23 AM 26.3°F-3.2°C 15.9°F-8.9°C 65% 2.0 mph NE3.2 kmh NE -- 30.41 in1029.8 mb 0.00 in0.0 mm 0.00 in0.0 mm 0.00 in0.0 mm
05:28 AM 25.8°F-3.4°C 15.2°F-9.3°C 64% Calm Calm -- 30.40 in1029.5 mb 0.00 in0.0 mm 0.00 in0.0 mm 0.00 in0.0 mm
05:33 AM 25.8°F-3.4°C 15.2°F-9.3°C 64% 3.0 mph N4.8 kmh N -- 30.41 in1029.8 mb 0.00 in0.0 mm 0.00 in0.0 mm 0.00 in0.0 mm
05:38 AM 26.3°F-3.2°C 14.8°F-9.6°C 62% 5.0 mph N8.0 kmh N -- 30.41 in1029.8 mb 0.00 in0.0 mm 0.00 in0.0 mm 0.00 in0.0 mm
05:43 AM 26.4°F-3.1°C 14.6°F-9.7°C 61% 3.0 mph NE4.8 kmh NE -- 30.41 in1029.8 mb 0.00 in0.0 mm 0.00 in0.0 mm 0.00 in0.0 mm
05:48 AM 26.2°F-3.2°C 14.8°F-9.6°C 62% 2.0 mph NNE3.2 kmh NNE -- 30.41 in1029.8 mb 0.00 in0.0 mm 0.00 in0.0 mm 0.00 in0.0 mm
05:53 AM 26.0°F-3.3°C 14.7°F-9.6°C 62% 4.0 mph N6.4 kmh N -- 30.42 in1030.1 mb 0.00 in0.0 mm 0.00 in0.0 mm 0.00 in0.0 mm
05:58 AM 26.1°F-3.3°C 15.0°F-9.4°C 63% 4.0 mph NNE6.4 kmh NNE -- 30.42 in1030.1 mb 0.00 in0.0 mm 0.00 in0.0 mm 0.00 in0.0 mm
06:03 AM 26.1°F-3.3°C 14.7°F-9.6°C 62% 3.0 mph NNE4.8 kmh NNE -- 30.42 in1030.1 mb 0.00 in0.0 mm 0.00 in0.0 mm 0.00 in0.0 mm
06:08 AM 26.1°F-3.3°C 14.7°F-9.6°C 62% 2.0 mph E3.2 kmh E -- 30.42 in1030.1 mb 0.00 in0.0 mm 0.00 in0.0 mm 0.00 in0.0 mm
06:12 AM 26.0°F-3.3°C 14.7°F-9.6°C 62% 6.0 mph NNE9.7 kmh NNE -- 30.43 in1030.5 mb 0.00 in0.0 mm 0.00 in0.0 mm 0.00 in0.0 mm
06:18 AM 26.2°F-3.2°C 14.8°F-9.6°C 62% 7.0 mph NE11.3 kmh NE -- 30.43 in1030.5 mb 0.00 in0.0 mm 0.00 in0.0 mm 0.00 in0.0 mm
06:23 AM 26.3°F-3.2°C 14.5°F-9.7°C 61% 3.0 mph NNE4.8 kmh NNE -- 30.43 in1030.5 mb 0.00 in0.0 mm 0.00 in0.0 mm 0.00 in0.0 mm
06:28 AM 26.1°F-3.3°C 14.7°F-9.6°C 62% 4.0 mph N6.4 kmh N -- 30.44 in1030.8 mb 0.00 in0.0 mm 0.00 in0.0 mm 0.00 in0.0 mm
06:32 AM 25.9°F-3.4°C 15.2°F-9.3°C 64% 2.0 mph NNE3.2 kmh NNE -- 30.44 in1030.8 mb 0.00 in0.0 mm 0.00 in0.0 mm 0.00 in0.0 mm
06:38 AM 25.7°F-3.5°C 14.7°F-9.6°C 63% 3.0 mph NE4.8 kmh NE -- 30.44 in1030.8 mb 0.00 in0.0 mm 0.00 in0.0 mm 0.00 in0.0 mm
06:42 AM 25.7°F-3.5°C 14.3°F-9.8°C 62% 4.0 mph NNE6.4 kmh NNE -- 30.45 in1031.2 mb 0.00 in0.0 mm 0.00 in0.0 mm 0.00 in0.0 mm
06:48 AM 25.8°F-3.4°C 14.9°F-9.5°C 63% 3.0 mph NNW4.8 kmh NNW -- 30.45 in1031.2 mb 0.00 in0.0 mm 0.00 in0.0 mm 0.00 in0.0 mm
06:52 AM 25.6°F-3.6°C 14.9°F-9.5°C 64% Calm Calm -- 30.45 in1031.2 mb 0.00 in0.0 mm 0.00 in0.0 mm 0.00 in0.0 mm
06:58 AM 25.4°F-3.7°C 14.7°F-9.6°C 64% Calm Calm -- 30.46 in1031.5 mb 0.00 in0.0 mm 0.00 in0.0 mm 0.00 in0.0 mm
07:03 AM 25.1°F-3.8°C 14.9°F-9.5°C 65% 3.0 mph N4.8 kmh N -- 30.47 in1031.8 mb 0.00 in0.0 mm 0.00 in0.0 mm 0.00 in0.0 mm
07:08 AM 24.8°F-4.0°C 14.6°F-9.7°C 65% 1.0 mph ENE1.6 kmh ENE -- 30.47 in1031.8 mb 0.00 in0.0 mm 0.00 in0.0 mm 0.00 in0.0 mm
07:13 AM 24.9°F-3.9°C 15.1°F-9.4°C 66% 2.0 mph NE3.2 kmh NE -- 30.47 in1031.8 mb 0.00 in0.0 mm 0.00 in0.0 mm 0.00 in0.0 mm
07:18 AM 24.9°F-3.9°C 14.7°F-9.6°C 65% 3.0 mph NE4.8 kmh NE -- 30.47 in1031.8 mb 0.00 in0.0 mm 0.00 in0.0 mm 0.00 in0.0 mm
07:23 AM 25.1°F-3.8°C 14.9°F-9.5°C 65% 1.0 mph NE1.6 kmh NE -- 30.47 in1031.8 mb 0.00 in0.0 mm 0.00 in0.0 mm 0.00 in0.0 mm
07:28 AM 25.1°F-3.8°C 15.3°F-9.3°C 66% 1.0 mph ESE1.6 kmh ESE -- 30.47 in1031.8 mb 0.00 in0.0 mm 0.00 in0.0 mm 0.00 in0.0 mm
07:33 AM 24.9°F-3.9°C 15.1°F-9.4°C 66% 2.0 mph NE3.2 kmh NE -- 30.46 in1031.5 mb 0.00 in0.0 mm 0.00 in0.0 mm 0.00 in0.0 mm
07:38 AM 24.9°F-3.9°C 15.4°F-9.2°C 67% 1.0 mph E1.6 kmh E -- 30.46 in1031.5 mb 0.00 in0.0 mm 0.00 in0.0 mm 0.00 in0.0 mm
07:43 AM 24.9°F-3.9°C 15.4°F-9.2°C 67% 3.0 mph NNE4.8 kmh NNE -- 30.46 in1031.5 mb 0.00 in0.0 mm 0.00 in0.0 mm 0.00 in0.0 mm
07:48 AM 24.9°F-3.9°C 15.4°F-9.2°C 67% 2.0 mph NE3.2 kmh NE -- 30.47 in1031.8 mb 0.00 in0.0 mm 0.00 in0.0 mm 0.00 in0.0 mm
07:53 AM 25.1°F-3.8°C 15.3°F-9.3°C 66% 1.0 mph ENE1.6 kmh ENE -- 30.47 in1031.8 mb 0.00 in0.0 mm 0.00 in0.0 mm 0.00 in0.0 mm
07:58 AM 25.3°F-3.7°C 15.4°F-9.2°C 66% 3.0 mph N4.8 kmh N -- 30.48 in1032.2 mb 0.00 in0.0 mm 0.00 in0.0 mm 0.00 in0.0 mm
08:03 AM 25.6°F-3.6°C 14.9°F-9.5°C 64% 4.0 mph NE6.4 kmh NE -- 30.48 in1032.2 mb 0.00 in0.0 mm 0.00 in0.0 mm 0.00 in0.0 mm
08:07 AM 25.8°F-3.4°C 15.2°F-9.3°C 64% 4.0 mph NE6.4 kmh NE -- 30.48 in1032.2 mb 0.00 in0.0 mm 0.00 in0.0 mm 0.00 in0.0 mm
08:12 AM 25.9°F-3.4°C 14.9°F-9.5°C 63% 3.0 mph NE4.8 kmh NE -- 30.48 in1032.2 mb 0.00 in0.0 mm 0.00 in0.0 mm 0.00 in0.0 mm
08:18 AM 25.9°F-3.4°C 15.2°F-9.3°C 64% 2.0 mph E3.2 kmh E -- 30.49 in1032.5 mb 0.00 in0.0 mm 0.00 in0.0 mm 0.00 in0.0 mm
08:23 AM 26.0°F-3.3°C 15.8°F-9.0°C 65% Calm Calm -- 30.49 in1032.5 mb 0.00 in0.0 mm 0.00 in0.0 mm 0.00 in0.0 mm
08:27 AM 25.9°F-3.4°C 15.2°F-9.3°C 64% 1.0 mph ESE1.6 kmh ESE -- 30.50 in1032.8 mb 0.00 in0.0 mm 0.00 in0.0 mm 0.00 in0.0 mm
08:33 AM 25.9°F-3.4°C 15.2°F-9.3°C 64% 2.0 mph ENE3.2 kmh ENE -- 30.50 in1032.8 mb 0.00 in0.0 mm 0.00 in0.0 mm 0.00 in0.0 mm
08:37 AM 26.2°F-3.2°C 15.6°F-9.1°C 64% 1.0 mph E1.6 kmh E -- 30.50 in1032.8 mb 0.00 in0.0 mm 0.00 in0.0 mm 0.00 in0.0 mm
08:43 AM 26.4°F-3.1°C 15.4°F-9.2°C 63% 3.0 mph NE4.8 kmh NE -- 30.50 in1032.8 mb 0.00 in0.0 mm 0.00 in0.0 mm 0.00 in0.0 mm
08:48 AM 26.9°F-2.8°C 15.5°F-9.2°C 62% 5.0 mph NNW8.0 kmh NNW -- 30.51 in1033.2 mb 0.00 in0.0 mm 0.00 in0.0 mm 0.00 in0.0 mm
08:52 AM 27.6°F-2.4°C 15.5°F-9.2°C 60% 4.0 mph N6.4 kmh N -- 30.51 in1033.2 mb 0.00 in0.0 mm 0.00 in0.0 mm 0.00 in0.0 mm
08:58 AM 27.7°F-2.4°C 15.5°F-9.2°C 60% 1.0 mph E1.6 kmh E -- 30.51 in1033.2 mb 0.00 in0.0 mm 0.00 in0.0 mm 0.00 in0.0 mm
09:03 AM 27.8°F-2.3°C 15.6°F-9.1°C 60% 3.0 mph SE4.8 kmh SE -- 30.52 in1033.5 mb 0.00 in0.0 mm 0.00 in0.0 mm 0.00 in0.0 mm
09:08 AM 28.0°F-2.2°C 15.8°F-9.0°C 60% 3.0 mph NE4.8 kmh NE -- 30.52 in1033.5 mb 0.00 in0.0 mm 0.00 in0.0 mm 0.00 in0.0 mm
09:13 AM 28.3°F-2.1°C 15.6°F-9.1°C 59% 3.0 mph NNE4.8 kmh NNE -- 30.53 in1033.9 mb 0.00 in0.0 mm 0.00 in0.0 mm 0.00 in0.0 mm
09:18 AM 28.4°F-2.0°C 15.3°F-9.3°C 58% 4.0 mph N6.4 kmh N -- 30.53 in1033.9 mb 0.00 in0.0 mm 0.00 in0.0 mm 0.00 in0.0 mm
09:22 AM 28.7°F-1.8°C 15.7°F-9.1°C 58% 4.0 mph NE6.4 kmh NE -- 30.53 in1033.9 mb 0.00 in0.0 mm 0.00 in0.0 mm 0.00 in0.0 mm
09:28 AM 29.1°F-1.6°C 15.2°F-9.3°C 56% 5.0 mph N8.0 kmh N -- 30.53 in1033.9 mb 0.00 in0.0 mm 0.00 in0.0 mm 0.00 in0.0 mm
09:33 AM 29.2°F-1.6°C 15.2°F-9.3°C 56% 3.0 mph N4.8 kmh N -- 30.53 in1033.9 mb 0.00 in0.0 mm 0.00 in0.0 mm 0.00 in0.0 mm
09:38 AM 29.5°F-1.4°C 15.5°F-9.2°C 56% 5.0 mph N8.0 kmh N -- 30.53 in1033.9 mb 0.00 in0.0 mm 0.00 in0.0 mm 0.00 in0.0 mm
09:43 AM 30.2°F-1.0°C 15.8°F-9.0°C 55% 2.0 mph SE3.2 kmh SE -- 30.54 in1034.2 mb 0.00 in0.0 mm 0.00 in0.0 mm 0.00 in0.0 mm
09:48 AM 30.3°F-0.9°C 16.0°F-8.9°C 55% 3.0 mph NNE4.8 kmh NNE -- 30.54 in1034.2 mb 0.00 in0.0 mm 0.00 in0.0 mm 0.00 in0.0 mm
09:53 AM 30.6°F-0.8°C 15.7°F-9.1°C 54% 3.0 mph NNE4.8 kmh NNE -- 30.54 in1034.2 mb 0.00 in0.0 mm 0.00 in0.0 mm 0.00 in0.0 mm
09:58 AM 30.6°F-0.8°C 15.7°F-9.1°C 54% 3.0 mph NE4.8 kmh NE -- 30.54 in1034.2 mb 0.00 in0.0 mm 0.00 in0.0 mm 0.00 in0.0 mm
10:03 AM 30.8°F-0.7°C 15.4°F-9.2°C 53% 5.0 mph NW8.0 kmh NW -- 30.54 in1034.2 mb 0.00 in0.0 mm 0.00 in0.0 mm 0.00 in0.0 mm
10:08 AM 31.2°F-0.4°C 15.9°F-8.9°C 53% 3.0 mph NE4.8 kmh NE -- 30.54 in1034.2 mb 0.00 in0.0 mm 0.00 in0.0 mm 0.00 in0.0 mm
10:13 AM 31.4°F-0.3°C 15.7°F-9.1°C 52% 4.0 mph NNW6.4 kmh NNW -- 30.55 in1034.5 mb 0.00 in0.0 mm 0.00 in0.0 mm 0.00 in0.0 mm
10:18 AM 31.9°F-0.1°C 15.6°F-9.1°C 51% 1.0 mph NE1.6 kmh NE -- 30.54 in1034.2 mb 0.00 in0.0 mm 0.00 in0.0 mm 0.00 in0.0 mm
10:23 AM 32.2°F0.1°C 15.4°F-9.2°C 50% 2.0 mph S3.2 kmh S -- 30.54 in1034.2 mb 0.00 in0.0 mm 0.00 in0.0 mm 0.00 in0.0 mm
10:27 AM 31.9°F-0.1°C 14.2°F-9.9°C 48% 3.0 mph NE4.8 kmh NE -- 30.54 in1034.2 mb 0.00 in0.0 mm 0.00 in0.0 mm 0.00 in0.0 mm
10:32 AM 32.2°F0.1°C 15.0°F-9.4°C 49% 3.0 mph N4.8 kmh N -- 30.54 in1034.2 mb 0.00 in0.0 mm 0.00 in0.0 mm 0.00 in0.0 mm
10:38 AM 31.8°F-0.1°C 14.6°F-9.7°C 49% 2.0 mph SE3.2 kmh SE -- 30.54 in1034.2 mb 0.00 in0.0 mm 0.00 in0.0 mm 0.00 in0.0 mm
10:43 AM 32.5°F0.3°C 14.8°F-9.6°C 48% 4.0 mph N6.4 kmh N -- 30.54 in1034.2 mb 0.00 in0.0 mm 0.00 in0.0 mm 0.00 in0.0 mm
10:47 AM 32.4°F0.2°C 15.1°F-9.4°C 49% 2.0 mph N3.2 kmh N -- 30.54 in1034.2 mb 0.00 in0.0 mm 0.00 in0.0 mm 0.00 in0.0 mm
10:53 AM 32.1°F0.1°C 14.5°F-9.7°C 48% 3.0 mph NW4.8 kmh NW -- 30.54 in1034.2 mb 0.00 in0.0 mm 0.00 in0.0 mm 0.00 in0.0 mm
10:58 AM 32.2°F0.1°C 15.4°F-9.2°C 50% 2.0 mph SE3.2 kmh SE -- 30.54 in1034.2 mb 0.00 in0.0 mm 0.00 in0.0 mm 0.00 in0.0 mm
11:03 AM 33.1°F0.6°C 13.8°F-10.1°C 45% 3.0 mph NW4.8 kmh NW -- 30.54 in1034.2 mb 0.00 in0.0 mm 0.00 in0.0 mm 0.00 in0.0 mm
11:07 AM 33.3°F0.7°C 15.0°F-9.4°C 47% 3.0 mph NE4.8 kmh NE -- 30.54 in1034.2 mb 0.00 in0.0 mm 0.00 in0.0 mm 0.00 in0.0 mm
11:13 AM 34.1°F1.2°C 15.3°F-9.3°C 46% 2.0 mph E3.2 kmh E -- 30.53 in1033.9 mb 0.00 in0.0 mm 0.00 in0.0 mm 0.00 in0.0 mm
11:18 AM 33.6°F0.9°C 14.8°F-9.6°C 46% 2.0 mph E3.2 kmh E -- 30.53 in1033.9 mb 0.00 in0.0 mm 0.00 in0.0 mm 0.00 in0.0 mm
11:23 AM 34.1°F1.2°C 14.8°F-9.6°C 45% 3.0 mph NW4.8 kmh NW -- 30.53 in1033.9 mb 0.00 in0.0 mm 0.00 in0.0 mm 0.00 in0.0 mm
11:27 AM 34.2°F1.2°C 14.8°F-9.6°C 45% 3.0 mph E4.8 kmh E -- 30.53 in1033.9 mb 0.00 in0.0 mm 0.00 in0.0 mm 0.00 in0.0 mm
11:33 AM 34.0°F1.1°C 14.1°F-9.9°C 44% 3.0 mph ENE4.8 kmh ENE -- 30.53 in1033.9 mb 0.00 in0.0 mm 0.00 in0.0 mm 0.00 in0.0 mm
11:38 AM 34.6°F1.4°C 13.6°F-10.2°C 42% 4.0 mph NNE6.4 kmh NNE -- 30.52 in1033.5 mb 0.00 in0.0 mm 0.00 in0.0 mm 0.00 in0.0 mm
11:43 AM 34.8°F1.6°C 15.0°F-9.4°C 44% 3.0 mph NE4.8 kmh NE -- 30.52 in1033.5 mb 0.00 in0.0 mm 0.00 in0.0 mm 0.00 in0.0 mm
11:47 AM 34.3°F1.3°C 13.4°F-10.3°C 42% 3.0 mph NNE4.8 kmh NNE -- 30.52 in1033.5 mb 0.00 in0.0 mm 0.00 in0.0 mm 0.00 in0.0 mm
11:53 AM 35.3°F1.8°C 14.8°F-9.6°C 43% 4.0 mph NNE6.4 kmh NNE -- 30.51 in1033.2 mb 0.00 in0.0 mm 0.00 in0.0 mm 0.00 in0.0 mm
11:58 AM 35.0°F1.7°C 14.6°F-9.7°C 43% 3.0 mph NNW4.8 kmh NNW -- 30.51 in1033.2 mb 0.00 in0.0 mm 0.00 in0.0 mm 0.00 in0.0 mm
12:02 PM 36.3°F2.4°C 14.6°F-9.7°C 41% 3.0 mph SE4.8 kmh SE -- 30.51 in1033.2 mb 0.00 in0.0 mm 0.00 in0.0 mm 0.00 in0.0 mm
12:07 PM 37.1°F2.8°C 15.9°F-8.9°C 42% 2.0 mph E3.2 kmh E -- 30.51 in1033.2 mb 0.00 in0.0 mm 0.00 in0.0 mm 0.00 in0.0 mm
12:13 PM 36.9°F2.7°C 15.1°F-9.4°C 41% 1.0 mph SE1.6 kmh SE -- 30.50 in1032.8 mb 0.00 in0.0 mm 0.00 in0.0 mm 0.00 in0.0 mm
12:18 PM 36.7°F2.6°C 14.4°F-9.8°C 40% 5.0 mph NW8.0 kmh NW -- 30.50 in1032.8 mb 0.00 in0.0 mm 0.00 in0.0 mm 0.00 in0.0 mm
12:23 PM 36.3°F2.4°C 13.5°F-10.3°C 39% 2.0 mph NNW3.2 kmh NNW -- 30.49 in1032.5 mb 0.00 in0.0 mm 0.00 in0.0 mm 0.00 in0.0 mm
12:28 PM 37.3°F2.9°C 15.5°F-9.2°C 41% 2.0 mph E3.2 kmh E -- 30.49 in1032.5 mb 0.00 in0.0 mm 0.00 in0.0 mm 0.00 in0.0 mm
12:33 PM 37.4°F3.0°C 14.5°F-9.7°C 39% 3.0 mph NE4.8 kmh NE -- 30.49 in1032.5 mb 0.00 in0.0 mm 0.00 in0.0 mm 0.00 in0.0 mm
12:38 PM 36.8°F2.7°C 14.6°F-9.7°C 40% 5.0 mph NE8.0 kmh NE -- 30.49 in1032.5 mb 0.00 in0.0 mm 0.00 in0.0 mm 0.00 in0.0 mm
12:43 PM 36.8°F2.7°C 14.0°F-10.0°C 39% 4.0 mph WNW6.4 kmh WNW -- 30.49 in1032.5 mb 0.00 in0.0 mm 0.00 in0.0 mm 0.00 in0.0 mm
12:47 PM 37.2°F2.9°C 14.9°F-9.5°C 40% 5.0 mph N8.0 kmh N -- 30.49 in1032.5 mb 0.00 in0.0 mm 0.00 in0.0 mm 0.00 in0.0 mm
12:53 PM 37.9°F3.3°C 14.4°F-9.8°C 38% 6.0 mph E9.7 kmh E -- 30.49 in1032.5 mb 0.00 in0.0 mm 0.00 in0.0 mm 0.00 in0.0 mm
12:58 PM 37.9°F3.3°C 15.5°F-9.2°C 40% 3.0 mph NE4.8 kmh NE -- 30.48 in1032.2 mb 0.00 in0.0 mm 0.00 in0.0 mm 0.00 in0.0 mm
01:03 PM 37.9°F3.3°C 15.5°F-9.2°C 40% 2.0 mph NE3.2 kmh NE -- 30.49 in1032.5 mb 0.00 in0.0 mm 0.00 in0.0 mm 0.00 in0.0 mm
01:07 PM 37.8°F3.2°C 14.8°F-9.6°C 39% 1.0 mph SE1.6 kmh SE -- 30.49 in1032.5 mb 0.00 in0.0 mm 0.00 in0.0 mm 0.00 in0.0 mm
01:13 PM 37.5°F3.1°C 13.4°F-10.3°C 37% Calm Calm -- 30.48 in1032.2 mb 0.00 in0.0 mm 0.00 in0.0 mm 0.00 in0.0 mm
01:17 PM 37.8°F3.2°C 14.8°F-9.6°C 39% 3.0 mph ESE4.8 kmh ESE -- 30.48 in1032.2 mb 0.00 in0.0 mm 0.00 in0.0 mm 0.00 in0.0 mm
01:23 PM 38.7°F3.7°C 15.6°F-9.1°C 39% 2.0 mph NE3.2 kmh NE -- 30.48 in1032.2 mb 0.00 in0.0 mm 0.00 in0.0 mm 0.00 in0.0 mm
01:27 PM 38.3°F3.5°C 14.1°F-9.9°C 37% 4.0 mph N6.4 kmh N -- 30.48 in1032.2 mb 0.00 in0.0 mm 0.00 in0.0 mm 0.00 in0.0 mm
01:33 PM 38.5°F3.6°C 13.6°F-10.2°C 36% 3.0 mph E4.8 kmh E -- 30.48 in1032.2 mb 0.00 in0.0 mm 0.00 in0.0 mm 0.00 in0.0 mm
01:38 PM 38.4°F3.6°C 14.2°F-9.9°C 37% 2.0 mph SE3.2 kmh SE -- 30.48 in1032.2 mb 0.00 in0.0 mm 0.00 in0.0 mm 0.00 in0.0 mm
01:43 PM 39.0°F3.9°C 14.7°F-9.6°C 37% 3.0 mph NE4.8 kmh NE -- 30.47 in1031.8 mb 0.00 in0.0 mm 0.00 in0.0 mm 0.00 in0.0 mm
01:47 PM 39.5°F4.2°C 15.2°F-9.3°C 37% 3.0 mph SE4.8 kmh SE -- 30.47 in1031.8 mb 0.00 in0.0 mm 0.00 in0.0 mm 0.00 in0.0 mm
01:53 PM 38.8°F3.8°C 13.9°F-10.1°C 36% 3.0 mph N4.8 kmh N -- 30.47 in1031.8 mb 0.00 in0.0 mm 0.00 in0.0 mm 0.00 in0.0 mm
01:57 PM 38.5°F3.6°C 13.6°F-10.2°C 36% 2.0 mph ENE3.2 kmh ENE -- 30.47 in1031.8 mb 0.00 in0.0 mm 0.00 in0.0 mm 0.00 in0.0 mm
02:03 PM 39.2°F4.0°C 14.3°F-9.8°C 36% 4.0 mph NE6.4 kmh NE -- 30.48 in1032.2 mb 0.00 in0.0 mm 0.00 in0.0 mm 0.00 in0.0 mm
02:07 PM 39.5°F4.2°C 14.6°F-9.7°C 36% 4.0 mph ESE6.4 kmh ESE -- 30.47 in1031.8 mb 0.00 in0.0 mm 0.00 in0.0 mm 0.00 in0.0 mm
02:13 PM 40.0°F4.4°C 15.5°F-9.2°C 37% Calm Calm -- 30.48 in1032.2 mb 0.00 in0.0 mm 0.00 in0.0 mm 0.00 in0.0 mm
02:18 PM 40.1°F4.5°C 15.7°F-9.1°C 37% 1.0 mph SE1.6 kmh SE -- 30.48 in1032.2 mb 0.00 in0.0 mm 0.00 in0.0 mm 0.00 in0.0 mm
02:22 PM 40.0°F4.4°C 14.9°F-9.5°C 36% 1.0 mph SE1.6 kmh SE -- 30.48 in1032.2 mb 0.00 in0.0 mm 0.00 in0.0 mm 0.00 in0.0 mm
02:23 PM 40.0°F4.4°C 14.9°F-9.5°C 36% 5.0 mph WSW8.0 kmh WSW -- 30.48 in1032.2 mb 0.00 in0.0 mm 0.00 in0.0 mm 0.00 in0.0 mm
02:27 PM 40.0°F4.4°C 13.6°F-10.2°C 34% 4.0 mph NW6.4 kmh NW -- 30.48 in1032.2 mb 0.00 in0.0 mm 0.00 in0.0 mm 0.00 in0.0 mm
02:33 PM 39.8°F4.3°C 12.7°F-10.7°C 33% Calm Calm -- 30.48 in1032.2 mb 0.00 in0.0 mm 0.00 in0.0 mm 0.00 in0.0 mm
02:38 PM 39.8°F4.3°C 14.7°F-9.6°C 36% 1.0 mph E1.6 kmh E -- 30.48 in1032.2 mb 0.00 in0.0 mm 0.00 in0.0 mm 0.00 in0.0 mm
02:43 PM 40.0°F4.4°C 13.6°F-10.2°C 34% Calm Calm -- 30.47 in1031.8 mb 0.00 in0.0 mm 0.00 in0.0 mm 0.00 in0.0 mm
02:48 PM 39.9°F4.4°C 13.6°F-10.2°C 34% 2.0 mph SE3.2 kmh SE -- 30.47 in1031.8 mb 0.00 in0.0 mm 0.00 in0.0 mm 0.00 in0.0 mm
02:53 PM 40.0°F4.4°C 13.6°F-10.2°C 34% 4.0 mph WSW6.4 kmh WSW -- 30.47 in1031.8 mb 0.00 in0.0 mm 0.00 in0.0 mm 0.00 in0.0 mm
02:58 PM 40.4°F4.7°C 12.7°F-10.7°C 32% 2.0 mph SSE3.2 kmh SSE -- 30.48 in1032.2 mb 0.00 in0.0 mm 0.00 in0.0 mm 0.00 in0.0 mm
03:03 PM 40.3°F4.6°C 13.9°F-10.1°C 34% 3.0 mph E4.8 kmh E -- 30.48 in1032.2 mb 0.00 in0.0 mm 0.00 in0.0 mm 0.00 in0.0 mm
03:07 PM 40.6°F4.8°C 13.5°F-10.3°C 33% 2.0 mph SE3.2 kmh SE -- 30.48 in1032.2 mb 0.00 in0.0 mm 0.00 in0.0 mm 0.00 in0.0 mm
03:13 PM 40.6°F4.8°C 14.2°F-9.9°C 34% 3.0 mph S4.8 kmh S -- 30.47 in1031.8 mb 0.00 in0.0 mm 0.00 in0.0 mm 0.00 in0.0 mm
03:18 PM 40.8°F4.9°C 13.7°F-10.2°C 33% 1.0 mph SSE1.6 kmh SSE -- 30.48 in1032.2 mb 0.00 in0.0 mm 0.00 in0.0 mm 0.00 in0.0 mm
03:23 PM 40.8°F4.9°C 13.7°F-10.2°C 33% 1.0 mph W1.6 kmh W -- 30.47 in1031.8 mb 0.00 in0.0 mm 0.00 in0.0 mm 0.00 in0.0 mm
03:27 PM 40.9°F4.9°C 13.7°F-10.2°C 33% 1.0 mph SW1.6 kmh SW -- 30.47 in1031.8 mb 0.00 in0.0 mm 0.00 in0.0 mm 0.00 in0.0 mm
03:33 PM 40.9°F4.9°C 14.4°F-9.8°C 34% 2.0 mph SW3.2 kmh SW -- 30.47 in1031.8 mb 0.00 in0.0 mm 0.00 in0.0 mm 0.00 in0.0 mm
03:37 PM 40.9°F4.9°C 13.7°F-10.2°C 33% 6.0 mph NNW9.7 kmh NNW -- 30.48 in1032.2 mb 0.00 in0.0 mm 0.00 in0.0 mm 0.00 in0.0 mm
03:43 PM 40.7°F4.8°C 12.8°F-10.7°C 32% Calm Calm -- 30.47 in1031.8 mb 0.00 in0.0 mm 0.00 in0.0 mm 0.00 in0.0 mm
03:48 PM 40.6°F4.8°C 14.2°F-9.9°C 34% 2.0 mph NNE3.2 kmh NNE -- 30.47 in1031.8 mb 0.00 in0.0 mm 0.00 in0.0 mm 0.00 in0.0 mm
03:53 PM 40.6°F4.8°C 14.2°F-9.9°C 34% 3.0 mph N4.8 kmh N -- 30.47 in1031.8 mb 0.00 in0.0 mm 0.00 in0.0 mm 0.00 in0.0 mm
03:58 PM 40.6°F4.8°C 14.9°F-9.5°C 35% 1.0 mph SSW1.6 kmh SSW -- 30.48 in1032.2 mb 0.00 in0.0 mm 0.00 in0.0 mm 0.00 in0.0 mm
04:03 PM 40.4°F4.7°C 13.4°F-10.3°C 33% 1.0 mph SSW1.6 kmh SSW -- 30.48 in1032.2 mb 0.00 in0.0 mm 0.00 in0.0 mm 0.00 in0.0 mm
04:08 PM 40.1°F4.5°C 13.1°F-10.5°C 33% 3.0 mph NW4.8 kmh NW -- 30.48 in1032.2 mb 0.00 in0.0 mm 0.00 in0.0 mm 0.00 in0.0 mm
04:13 PM 40.1°F4.5°C 13.7°F-10.2°C 34% 1.0 mph SW1.6 kmh SW -- 30.48 in1032.2 mb 0.00 in0.0 mm 0.00 in0.0 mm 0.00 in0.0 mm
04:18 PM 39.9°F4.4°C 13.6°F-10.2°C 34% Calm Calm -- 30.48 in1032.2 mb 0.00 in0.0 mm 0.00 in0.0 mm 0.00 in0.0 mm
04:23 PM 39.7°F4.3°C 13.4°F-10.3°C 34% 1.0 mph S1.6 kmh S -- 30.48 in1032.2 mb 0.00 in0.0 mm 0.00 in0.0 mm 0.00 in0.0 mm
04:28 PM 39.5°F4.2°C 13.9°F-10.1°C 35% Calm Calm -- 30.48 in1032.2 mb 0.00 in0.0 mm 0.00 in0.0 mm 0.00 in0.0 mm
04:32 PM 39.2°F4.0°C 14.3°F-9.8°C 36% Calm Calm -- 30.48 in1032.2 mb 0.00 in0.0 mm 0.00 in0.0 mm 0.00 in0.0 mm
04:37 PM 38.9°F3.8°C 13.9°F-10.1°C 36% Calm Calm -- 30.48 in1032.2 mb 0.00 in0.0 mm 0.00 in0.0 mm 0.00 in0.0 mm
04:43 PM 38.6°F3.7°C 13.8°F-10.1°C 36% Calm Calm -- 30.48 in1032.2 mb 0.00 in0.0 mm 0.00 in0.0 mm 0.00 in0.0 mm
04:47 PM 38.4°F3.6°C 13.6°F-10.2°C 36% Calm Calm -- 30.48 in1032.2 mb 0.00 in0.0 mm 0.00 in0.0 mm 0.00 in0.0 mm
04:53 PM 38.1°F3.4°C 13.3°F-10.4°C 36% Calm Calm -- 30.48 in1032.2 mb 0.00 in0.0 mm 0.00 in0.0 mm 0.00 in0.0 mm
04:57 PM 38.0°F3.3°C 13.8°F-10.1°C 37% Calm Calm -- 30.48 in1032.2 mb 0.00 in0.0 mm 0.00 in0.0 mm 0.00 in0.0 mm
05:03 PM 37.9°F3.3°C 13.8°F-10.1°C 37% Calm Calm -- 30.48 in1032.2 mb 0.00 in0.0 mm 0.00 in0.0 mm 0.00 in0.0 mm
05:08 PM 37.6°F3.1°C 13.4°F-10.3°C 37% Calm Calm -- 30.48 in1032.2 mb 0.00 in0.0 mm 0.00 in0.0 mm 0.00 in0.0 mm
05:12 PM 37.4°F3.0°C 15.1°F-9.4°C 40% Calm Calm -- 30.48 in1032.2 mb 0.00 in0.0 mm 0.00 in0.0 mm 0.00 in0.0 mm
05:17 PM 37.1°F2.8°C 14.7°F-9.6°C 40% Calm Calm -- 30.48 in1032.2 mb 0.00 in0.0 mm 0.00 in0.0 mm 0.00 in0.0 mm
05:23 PM 36.7°F2.6°C 15.0°F-9.4°C 41% Calm Calm -- 30.48 in1032.2 mb 0.00 in0.0 mm 0.00 in0.0 mm 0.00 in0.0 mm
05:28 PM 36.4°F2.4°C 14.6°F-9.7°C 41% Calm Calm -- 30.48 in1032.2 mb 0.00 in0.0 mm 0.00 in0.0 mm 0.00 in0.0 mm
05:33 PM 36.2°F2.3°C 14.5°F-9.7°C 41% Calm Calm -- 30.48 in1032.2 mb 0.00 in0.0 mm 0.00 in0.0 mm 0.00 in0.0 mm
05:38 PM 36.0°F2.2°C 14.3°F-9.8°C 41% Calm Calm -- 30.48 in1032.2 mb 0.00 in0.0 mm 0.00 in0.0 mm 0.00 in0.0 mm
05:43 PM 35.8°F2.1°C 15.8°F-9.0°C 44% Calm Calm -- 30.49 in1032.5 mb 0.00 in0.0 mm 0.00 in0.0 mm 0.00 in0.0 mm
05:48 PM 35.6°F2.0°C 15.6°F-9.1°C 44% Calm Calm -- 30.49 in1032.5 mb 0.00 in0.0 mm 0.00 in0.0 mm 0.00 in0.0 mm
05:53 PM 35.3°F1.8°C 15.3°F-9.3°C 44% Calm Calm -- 30.49 in1032.5 mb 0.00 in0.0 mm 0.00 in0.0 mm 0.00 in0.0 mm
05:58 PM 35.0°F1.7°C 15.1°F-9.4°C 44% Calm Calm -- 30.49 in1032.5 mb 0.00 in0.0 mm 0.00 in0.0 mm 0.00 in0.0 mm
06:03 PM 34.8°F1.6°C 15.0°F-9.4°C 44% Calm Calm -- 30.49 in1032.5 mb 0.00 in0.0 mm 0.00 in0.0 mm 0.00 in0.0 mm
06:08 PM 34.5°F1.4°C 15.2°F-9.3°C 45% 1.0 mph SSE1.6 kmh SSE -- 30.49 in1032.5 mb 0.00 in0.0 mm 0.00 in0.0 mm 0.00 in0.0 mm
06:12 PM 34.3°F1.3°C 15.0°F-9.4°C 45% Calm Calm -- 30.50 in1032.8 mb 0.00 in0.0 mm 0.00 in0.0 mm 0.00 in0.0 mm
06:18 PM 34.1°F1.2°C 15.3°F-9.3°C 46% Calm Calm -- 30.50 in1032.8 mb 0.00 in0.0 mm 0.00 in0.0 mm 0.00 in0.0 mm
06:23 PM 33.9°F1.1°C 15.2°F-9.3°C 46% Calm Calm -- 30.50 in1032.8 mb 0.00 in0.0 mm 0.00 in0.0 mm 0.00 in0.0 mm
06:27 PM 33.8°F1.0°C 15.5°F-9.2°C 47% Calm Calm -- 30.50 in1032.8 mb 0.00 in0.0 mm 0.00 in0.0 mm 0.00 in0.0 mm
06:32 PM 33.7°F0.9°C 14.8°F-9.6°C 46% Calm Calm -- 30.50 in1032.8 mb 0.00 in0.0 mm 0.00 in0.0 mm 0.00 in0.0 mm
06:38 PM 33.7°F0.9°C 15.3°F-9.3°C 47% Calm Calm -- 30.50 in1032.8 mb 0.00 in0.0 mm 0.00 in0.0 mm 0.00 in0.0 mm
06:42 PM 33.6°F0.9°C 15.3°F-9.3°C 47% Calm Calm -- 30.50 in1032.8 mb 0.00 in0.0 mm 0.00 in0.0 mm 0.00 in0.0 mm
06:48 PM 33.5°F0.8°C 15.2°F-9.3°C 47% Calm Calm -- 30.50 in1032.8 mb 0.00 in0.0 mm 0.00 in0.0 mm 0.00 in0.0 mm
06:52 PM 33.6°F0.9°C 15.8°F-9.0°C 48% Calm Calm -- 30.50 in1032.8 mb 0.00 in0.0 mm 0.00 in0.0 mm 0.00 in0.0 mm
06:58 PM 33.7°F0.9°C 16.3°F-8.7°C 49% Calm Calm -- 30.50 in1032.8 mb 0.00 in0.0 mm 0.00 in0.0 mm 0.00 in0.0 mm
07:03 PM 33.6°F0.9°C 16.3°F-8.7°C 49% Calm Calm -- 30.51 in1033.2 mb 0.00 in0.0 mm 0.00 in0.0 mm 0.00 in0.0 mm
07:07 PM 33.5°F0.8°C 16.6°F-8.6°C 50% Calm Calm -- 30.51 in1033.2 mb 0.00 in0.0 mm 0.00 in0.0 mm 0.00 in0.0 mm
07:12 PM 33.4°F0.8°C 16.6°F-8.6°C 50% 1.0 mph S1.6 kmh S -- 30.51 in1033.2 mb 0.00 in0.0 mm 0.00 in0.0 mm 0.00 in0.0 mm
07:18 PM 33.2°F0.7°C 16.4°F-8.7°C 50% 2.0 mph S3.2 kmh S -- 30.51 in1033.2 mb 0.00 in0.0 mm 0.00 in0.0 mm 0.00 in0.0 mm
07:23 PM 33.2°F0.7°C 16.0°F-8.9°C 49% 1.0 mph S1.6 kmh S -- 30.51 in1033.2 mb 0.00 in0.0 mm 0.00 in0.0 mm 0.00 in0.0 mm
07:28 PM 33.2°F0.7°C 16.0°F-8.9°C 49% Calm Calm -- 30.51 in1033.2 mb 0.00 in0.0 mm 0.00 in0.0 mm 0.00 in0.0 mm
07:33 PM 33.0°F0.6°C 16.3°F-8.7°C 50% 2.0 mph S3.2 kmh S -- 30.51 in1033.2 mb 0.00 in0.0 mm 0.00 in0.0 mm 0.00 in0.0 mm
07:38 PM 32.8°F0.4°C 16.4°F-8.7°C 51% Calm Calm -- 30.51 in1033.2 mb 0.00 in0.0 mm 0.00 in0.0 mm 0.00 in0.0 mm
07:43 PM 32.8°F0.4°C 15.9°F-8.9°C 50% 2.0 mph S3.2 kmh S -- 30.52 in1033.5 mb 0.00 in0.0 mm 0.00 in0.0 mm 0.00 in0.0 mm
07:48 PM 32.9°F0.5°C 15.2°F-9.3°C 48% 2.0 mph SSE3.2 kmh SSE -- 30.52 in1033.5 mb 0.00 in0.0 mm 0.00 in0.0 mm 0.00 in0.0 mm
07:52 PM 33.1°F0.6°C 15.3°F-9.3°C 48% Calm Calm -- 30.52 in1033.5 mb 0.00 in0.0 mm 0.00 in0.0 mm 0.00 in0.0 mm
07:58 PM 33.1°F0.6°C 15.3°F-9.3°C 48% Calm Calm -- 30.52 in1033.5 mb 0.00 in0.0 mm 0.00 in0.0 mm 0.00 in0.0 mm
08:02 PM 32.9°F0.5°C 16.1°F-8.8°C 50% 1.0 mph S1.6 kmh S -- 30.52 in1033.5 mb 0.00 in0.0 mm 0.00 in0.0 mm 0.00 in0.0 mm
08:08 PM 32.7°F0.4°C 15.9°F-8.9°C 50% Calm Calm -- 30.52 in1033.5 mb 0.00 in0.0 mm 0.00 in0.0 mm 0.00 in0.0 mm
08:13 PM 32.5°F0.3°C 15.8°F-9.0°C 50% Calm Calm -- 30.52 in1033.5 mb 0.00 in0.0 mm 0.00 in0.0 mm 0.00 in0.0 mm
08:18 PM 32.3°F0.2°C 16.1°F-8.8°C 51% Calm Calm -- 30.52 in1033.5 mb 0.00 in0.0 mm 0.00 in0.0 mm 0.00 in0.0 mm
08:22 PM 32.2°F0.1°C 15.9°F-8.9°C 51% 1.0 mph S1.6 kmh S -- 30.52 in1033.5 mb 0.00 in0.0 mm 0.00 in0.0 mm 0.00 in0.0 mm
08:28 PM 32.4°F0.2°C 16.1°F-8.8°C 51% 1.0 mph S1.6 kmh S -- 30.52 in1033.5 mb 0.00 in0.0 mm 0.00 in0.0 mm 0.00 in0.0 mm
08:33 PM 32.6°F0.3°C 16.2°F-8.8°C 51% 1.0 mph S1.6 kmh S -- 30.52 in1033.5 mb 0.00 in0.0 mm 0.00 in0.0 mm 0.00 in0.0 mm
08:37 PM 32.7°F0.4°C 16.8°F-8.4°C 52% 1.0 mph S1.6 kmh S -- 30.52 in1033.5 mb 0.00 in0.0 mm 0.00 in0.0 mm 0.00 in0.0 mm
08:43 PM 32.5°F0.3°C 16.2°F-8.8°C 51% 2.0 mph SSE3.2 kmh SSE -- 30.52 in1033.5 mb 0.00 in0.0 mm 0.00 in0.0 mm 0.00 in0.0 mm
08:48 PM 32.3°F0.2°C 16.5°F-8.6°C 52% Calm Calm -- 30.53 in1033.9 mb 0.00 in0.0 mm 0.00 in0.0 mm 0.00 in0.0 mm
08:53 PM 32.1°F0.1°C 16.3°F-8.7°C 52% Calm Calm -- 30.53 in1033.9 mb 0.00 in0.0 mm 0.00 in0.0 mm 0.00 in0.0 mm
08:57 PM 32.0°F0.0°C 16.6°F-8.6°C 53% Calm Calm -- 30.53 in1033.9 mb 0.00 in0.0 mm 0.00 in0.0 mm 0.00 in0.0 mm
09:02 PM 32.1°F0.1°C 17.2°F-8.2°C 54% 1.0 mph S1.6 kmh S -- 30.52 in1033.5 mb 0.00 in0.0 mm 0.00 in0.0 mm 0.00 in0.0 mm
09:08 PM 32.2°F0.1°C 16.8°F-8.4°C 53% Calm Calm -- 30.53 in1033.9 mb 0.00 in0.0 mm 0.00 in0.0 mm 0.00 in0.0 mm
09:13 PM 32.3°F0.2°C 17.8°F-7.9°C 55% 1.0 mph S1.6 kmh S -- 30.53 in1033.9 mb 0.00 in0.0 mm 0.00 in0.0 mm 0.00 in0.0 mm
09:17 PM 32.2°F0.1°C 18.1°F-7.7°C 56% Calm Calm -- 30.53 in1033.9 mb 0.00 in0.0 mm 0.00 in0.0 mm 0.00 in0.0 mm
09:23 PM 31.8°F-0.1°C 17.7°F-7.9°C 56% Calm Calm -- 30.53 in1033.9 mb 0.00 in0.0 mm 0.00 in0.0 mm 0.00 in0.0 mm
09:27 PM 31.7°F-0.2°C 17.6°F-8.0°C 56% Calm Calm -- 30.53 in1033.9 mb 0.00 in0.0 mm 0.00 in0.0 mm 0.00 in0.0 mm
09:33 PM 31.5°F-0.3°C 17.0°F-8.3°C 55% Calm Calm -- 30.53 in1033.9 mb 0.00 in0.0 mm 0.00 in0.0 mm 0.00 in0.0 mm
09:37 PM 31.5°F-0.3°C 17.4°F-8.1°C 56% Calm Calm -- 30.53 in1033.9 mb 0.00 in0.0 mm 0.00 in0.0 mm 0.00 in0.0 mm
09:43 PM 31.2°F-0.4°C 17.2°F-8.2°C 56% Calm Calm -- 30.53 in1033.9 mb 0.00 in0.0 mm 0.00 in0.0 mm 0.00 in0.0 mm
09:48 PM 31.3°F-0.4°C 17.6°F-8.0°C 57% 1.0 mph SSE1.6 kmh SSE -- 30.53 in1033.9 mb 0.00 in0.0 mm 0.00 in0.0 mm 0.00 in0.0 mm
09:53 PM 31.4°F-0.3°C 18.2°F-7.7°C 58% Calm Calm -- 30.53 in1033.9 mb 0.00 in0.0 mm 0.00 in0.0 mm 0.00 in0.0 mm
09:57 PM 31.2°F-0.4°C 17.6°F-8.0°C 57% Calm Calm -- 30.54 in1034.2 mb 0.00 in0.0 mm 0.00 in0.0 mm 0.00 in0.0 mm
10:03 PM 31.0°F-0.6°C 17.3°F-8.2°C 57% Calm Calm -- 30.54 in1034.2 mb 0.00 in0.0 mm 0.00 in0.0 mm 0.00 in0.0 mm
10:08 PM 30.7°F-0.7°C 17.1°F-8.3°C 57% Calm Calm -- 30.54 in1034.2 mb 0.00 in0.0 mm 0.00 in0.0 mm 0.00 in0.0 mm
10:13 PM 30.5°F-0.8°C 17.0°F-8.3°C 57% Calm Calm -- 30.54 in1034.2 mb 0.00 in0.0 mm 0.00 in0.0 mm 0.00 in0.0 mm
10:17 PM 30.5°F-0.8°C 17.8°F-7.9°C 59% Calm Calm -- 30.54 in1034.2 mb 0.00 in0.0 mm 0.00 in0.0 mm 0.00 in0.0 mm
10:23 PM 30.4°F-0.9°C 17.6°F-8.0°C 59% Calm Calm -- 30.54 in1034.2 mb 0.00 in0.0 mm 0.00 in0.0 mm 0.00 in0.0 mm
10:28 PM 30.3°F-0.9°C 18.0°F-7.8°C 60% Calm Calm -- 30.53 in1033.9 mb 0.00 in0.0 mm 0.00 in0.0 mm 0.00 in0.0 mm
10:32 PM 30.1°F-1.1°C 17.3°F-8.2°C 59% Calm Calm -- 30.53 in1033.9 mb 0.00 in0.0 mm 0.00 in0.0 mm 0.00 in0.0 mm
10:38 PM 30.3°F-0.9°C 17.6°F-8.0°C 59% 1.0 mph S1.6 kmh S -- 30.53 in1033.9 mb 0.00 in0.0 mm 0.00 in0.0 mm 0.00 in0.0 mm
10:43 PM 30.2°F-1.0°C 17.4°F-8.1°C 59% Calm Calm -- 30.54 in1034.2 mb 0.00 in0.0 mm 0.00 in0.0 mm 0.00 in0.0 mm
10:48 PM 30.2°F-1.0°C 16.6°F-8.6°C 57% Calm Calm -- 30.54 in1034.2 mb 0.00 in0.0 mm 0.00 in0.0 mm 0.00 in0.0 mm
10:52 PM 30.0°F-1.1°C 16.5°F-8.6°C 57% Calm Calm -- 30.53 in1033.9 mb 0.00 in0.0 mm 0.00 in0.0 mm 0.00 in0.0 mm
10:57 PM 30.0°F-1.1°C 16.1°F-8.8°C 56% Calm Calm -- 30.53 in1033.9 mb 0.00 in0.0 mm 0.00 in0.0 mm 0.00 in0.0 mm
11:03 PM 29.9°F-1.2°C 15.9°F-8.9°C 56% Calm Calm -- 30.53 in1033.9 mb 0.00 in0.0 mm 0.00 in0.0 mm 0.00 in0.0 mm
11:08 PM 29.7°F-1.3°C 16.5°F-8.6°C 58% Calm Calm -- 30.53 in1033.9 mb 0.00 in0.0 mm 0.00 in0.0 mm 0.00 in0.0 mm
11:12 PM 29.4°F-1.4°C 16.8°F-8.4°C 59% Calm Calm -- 30.53 in1033.9 mb 0.00 in0.0 mm 0.00 in0.0 mm 0.00 in0.0 mm
11:18 PM 29.1°F-1.6°C 16.8°F-8.4°C 60% Calm Calm -- 30.53 in1033.9 mb 0.00 in0.0 mm 0.00 in0.0 mm 0.00 in0.0 mm
11:23 PM 28.9°F-1.7°C 17.4°F-8.1°C 62% Calm Calm -- 30.53 in1033.9 mb 0.00 in0.0 mm 0.00 in0.0 mm 0.00 in0.0 mm
11:28 PM 28.6°F-1.9°C 16.7°F-8.5°C 61% Calm Calm -- 30.53 in1033.9 mb 0.00 in0.0 mm 0.00 in0.0 mm 0.00 in0.0 mm
11:32 PM 28.3°F-2.1°C 15.6°F-9.1°C 59% Calm Calm -- 30.53 in1033.9 mb 0.00 in0.0 mm 0.00 in0.0 mm 0.00 in0.0 mm
11:38 PM 28.2°F-2.1°C 16.3°F-8.7°C 61% Calm Calm -- 30.53 in1033.9 mb 0.00 in0.0 mm 0.00 in0.0 mm 0.00 in0.0 mm
11:43 PM 28.0°F-2.2°C 16.9°F-8.4°C 63% Calm Calm -- 30.52 in1033.5 mb 0.00 in0.0 mm 0.00 in0.0 mm 0.00 in0.0 mm
11:48 PM 27.8°F-2.3°C 15.6°F-9.1°C 60% Calm Calm -- 30.52 in1033.5 mb 0.00 in0.0 mm 0.00 in0.0 mm 0.00 in0.0 mm
11:52 PM 27.7°F-2.4°C 15.8°F-9.0°C 61% Calm Calm -- 30.52 in1033.5 mb 0.00 in0.0 mm 0.00 in0.0 mm 0.00 in0.0 mm
11:58 PM 27.7°F-2.4°C 15.5°F-9.2°C 60% Calm Calm -- 30.52 in1033.5 mb 0.00 in0.0 mm 0.00 in0.0 mm 0.00 in0.0 mm